^^
Saratoga-Weather Station Historical Data
Daily Summary for September 5, 2020 Units:  Metric    English   Both
Daily Weekly Monthly Yearly Custom
  High: Low: Average:
Temperature: 25.8 °C 18.6 °C 20.9 °C
Dew Point: 18.9 °C 15.6 °C 17.1 °C
Humidity: 92% 61% 79%
Wind Speed: 17.7km/h 0km/h 5km/h
Wind Gust: 29km/h - -
Wind- - West
Pressure: 1016.3 hPa 1012.5 hPa -
Precipitation: 0.8 mm    
Historical Graphs
 
 
Tabular Data for September 5, 2020
Time Temperature Dew Point Pressure Wind Wind Speed Wind Gust Humidity Rainfall Rate (Hourly) solar
00:03 21.2 °C 15.7 °C 1016.3 hPa ESE 3.2 km/h 6.4 km/h 71% 0.0 mm 0 W/m2
00:08 21.2 °C 15.7 °C 1016.3 hPa South 1.4 km/h 3.2 km/h 71% 0.0 mm 0 W/m2
00:13 21.2 °C 15.7 °C 1016.3 hPa Calm     71% 0.0 mm 0 W/m2
00:18 21.1 °C 15.6 °C 1016.3 hPa South 1.4 km/h 3.2 km/h 71% 0.0 mm 0 W/m2
00:23 21.1 °C 15.6 °C 1016.3 hPa West 3.2 km/h 8 km/h 71% 0.0 mm 0 W/m2
00:28 21.1 °C 15.9 °C 1016.3 hPa NW 3.2 km/h 6.4 km/h 72% 0.0 mm 0 W/m2
00:33 21.1 °C 15.9 °C 1016.3 hPa NW 1.4 km/h 3.2 km/h 72% 0.0 mm 0 W/m2
00:38 21.1 °C 15.9 °C 1016.3 hPa NNE 1.4 km/h 4.8 km/h 72% 0.0 mm 0 W/m2
00:43 21 °C 15.8 °C 1016.3 hPa Calm     72% 0.0 mm 0 W/m2
00:48 20.9 °C 15.7 °C 1016.3 hPa SSE 1.4 km/h 1.6 km/h 72% 0.0 mm 0 W/m2
00:53 20.9 °C 15.7 °C 1016.3 hPa NW 1.4 km/h 1.6 km/h 72% 0.0 mm 0 W/m2
00:58 20.9 °C 15.7 °C 1016.3 hPa NNW 1.4 km/h 6.4 km/h 72% 0.0 mm 0 W/m2
01:03 20.9 °C 15.7 °C 1016.3 hPa NE 1.4 km/h 11.3 km/h 72% 0.0 mm 0 W/m2
01:08 20.9 °C 15.7 °C 1016.3 hPa West 3.2 km/h 6.4 km/h 72% 0.0 mm 0 W/m2
01:13 20.9 °C 15.7 °C 1016.3 hPa North 6.4 km/h 11.3 km/h 72% 0.0 mm 0 W/m2
01:18 21 °C 15.8 °C 1016.3 hPa NW 1.4 km/h 8 km/h 72% 0.0 mm 0 W/m2
01:23 21 °C 15.8 °C 1016.3 hPa WSW 7.9 km/h 16.1 km/h 72% 0.0 mm 0 W/m2
01:28 21 °C 15.8 °C 1015.9 hPa West 1.4 km/h 12.9 km/h 72% 0.0 mm 0 W/m2
01:33 21.1 °C 15.9 °C 1015.9 hPa NW 1.4 km/h 4.8 km/h 72% 0.0 mm 0 W/m2
01:38 21.1 °C 15.9 °C 1016.3 hPa NW 1.4 km/h 8 km/h 72% 0.0 mm 0 W/m2
01:43 21 °C 15.8 °C 1015.9 hPa NW 3.2 km/h 4.8 km/h 72% 0.0 mm 0 W/m2
01:48 21 °C 16 °C 1015.9 hPa Calm   4.8 km/h 73% 0.0 mm 0 W/m2
01:53 20.9 °C 15.9 °C 1015.9 hPa NNW 1.4 km/h 3.2 km/h 73% 0.0 mm 0 W/m2
01:58 20.9 °C 15.9 °C 1015.9 hPa NW 3.2 km/h 6.4 km/h 73% 0.0 mm 0 W/m2
02:03 20.9 °C 15.9 °C 1015.9 hPa West 9.7 km/h 11.3 km/h 73% 0.0 mm 0 W/m2
02:08 20.9 °C 15.9 °C 1015.9 hPa North 4.7 km/h 6.4 km/h 73% 0.0 mm 0 W/m2
02:13 20.9 °C 15.9 °C 1015.9 hPa NW 4.7 km/h 8 km/h 73% 0.0 mm 0 W/m2
02:18 20.8 °C 16 °C 1015.9 hPa North 9.7 km/h 16.1 km/h 74% 0.0 mm 0 W/m2
02:23 20.8 °C 16 °C 1015.9 hPa WNW 4.7 km/h 4.8 km/h 74% 0.0 mm 0 W/m2
02:28 20.8 °C 16 °C 1015.9 hPa NW 14.3 km/h 16.1 km/h 74% 0.0 mm 0 W/m2
02:33 20.8 °C 16 °C 1015.6 hPa West 3.2 km/h 6.4 km/h 74% 0.0 mm 0 W/m2
02:38 20.8 °C 16 °C 1015.6 hPa NW 13 km/h 12.9 km/h 74% 0.0 mm 0 W/m2
02:43 20.7 °C 16.1 °C 1015.6 hPa WSW 3.2 km/h 19.3 km/h 75% 0.0 mm 0 W/m2
02:48 20.7 °C 16.1 °C 1015.6 hPa Calm   11.3 km/h 75% 0.0 mm 0 W/m2
02:54 20.7 °C 16.1 °C 1015.6 hPa WNW 3.2 km/h 14.5 km/h 75% 0.0 mm 0 W/m2
02:59 20.7 °C 16.1 °C 1015.6 hPa NW 6.4 km/h 8 km/h 75% 0.0 mm 0 W/m2
03:04 20.7 °C 16.1 °C 1015.6 hPa WNW 7.9 km/h 12.9 km/h 75% 0.0 mm 0 W/m2
03:09 20.7 °C 16.1 °C 1015.6 hPa West 3.2 km/h 14.5 km/h 75% 0.0 mm 0 W/m2
03:14 20.6 °C 16.2 °C 1015.2 hPa WSW 3.2 km/h 6.4 km/h 76% 0.0 mm 0 W/m2
03:24 20.6 °C 16.2 °C 1015.6 hPa West 3.2 km/h 9.7 km/h 76% 0.0 mm 0 W/m2
03:29 20.6 °C 16.2 °C 1015.2 hPa NW 7.9 km/h 8 km/h 76% 0.0 mm 0 W/m2
03:34 20.6 °C 16.2 °C 1015.2 hPa NW 1.4 km/h 6.4 km/h 76% 0.0 mm 0 W/m2
03:39 20.5 °C 16.1 °C 1015.2 hPa West 6.4 km/h 12.9 km/h 76% 0.0 mm 0 W/m2
03:44 20.4 °C 16 °C 1015.2 hPa NNW 4.7 km/h 9.7 km/h 76% 0.0 mm 0 W/m2
03:49 20.4 °C 16 °C 1015.2 hPa WNW 16.3 km/h 19.3 km/h 76% 0.0 mm 0 W/m2
03:54 20.4 °C 16.2 °C 1015.2 hPa NW 3.2 km/h 6.4 km/h 77% 0.0 mm 0 W/m2
03:59 20.4 °C 16.2 °C 1015.2 hPa WSW 3.2 km/h 19.3 km/h 77% 0.0 mm 0 W/m2
04:04 20.3 °C 16.1 °C 1015.2 hPa WNW 4.7 km/h 11.3 km/h 77% 0.0 mm 0 W/m2
04:10 20.3 °C 16.1 °C 1015.2 hPa WSW 3.2 km/h 17.7 km/h 77% 0.0 mm 0 W/m2
04:15 20.3 °C 16.1 °C 1014.9 hPa NNW 7.9 km/h 8 km/h 77% 0.0 mm 0 W/m2
04:20 20.2 °C 16 °C 1014.9 hPa NW 4.7 km/h 12.9 km/h 77% 0.0 mm 0 W/m2
04:25 20.2 °C 16.2 °C 1014.9 hPa ENE 1.4 km/h 6.4 km/h 78% 0.0 mm 0 W/m2
04:30 20.2 °C 16.2 °C 1014.9 hPa NW 13 km/h 16.1 km/h 78% 0.0 mm 0 W/m2
04:35 20.1 °C 16.1 °C 1014.9 hPa NW 1.4 km/h 12.9 km/h 78% 0.0 mm 0 W/m2
04:40 20.1 °C 16.1 °C 1014.9 hPa WNW 6.4 km/h 8 km/h 78% 0.0 mm 0 W/m2
04:45 20.1 °C 16.1 °C 1014.9 hPa WSW 3.2 km/h 4.8 km/h 78% 0.0 mm 0 W/m2
04:50 20.1 °C 16.1 °C 1014.9 hPa NW 6.4 km/h 8 km/h 78% 0.0 mm 0 W/m2
04:55 20.1 °C 16.1 °C 1014.9 hPa NW 1.4 km/h 6.4 km/h 78% 0.0 mm 0 W/m2
05:00 20.1 °C 16.1 °C 1014.9 hPa West 4.7 km/h 12.9 km/h 78% 0.0 mm 0 W/m2
05:05 20.1 °C 16.1 °C 1014.9 hPa North 7.9 km/h 9.7 km/h 78% 0.0 mm 0 W/m2
05:10 20.1 °C 16.1 °C 1014.9 hPa NW 3.2 km/h 6.4 km/h 78% 0.0 mm 0 W/m2
05:15 20.1 °C 16.1 °C 1014.9 hPa NW 6.4 km/h 6.4 km/h 78% 0.0 mm 0 W/m2
05:20 20 °C 16.2 °C 1014.9 hPa WNW 6.4 km/h 11.3 km/h 79% 0.0 mm 0 W/m2
05:25 20 °C 16.2 °C 1014.9 hPa WNW 4.7 km/h 9.7 km/h 79% 0.0 mm 0 W/m2
05:30 19.9 °C 16.1 °C 1014.9 hPa NW 17.7 km/h 17.7 km/h 79% 0.0 mm 0 W/m2
05:35 19.9 °C 16.3 °C 1014.9 hPa WNW 3.2 km/h 8 km/h 80% 0.0 mm 0 W/m2
05:40 19.9 °C 16.3 °C 1014.9 hPa WNW 1.4 km/h 4.8 km/h 80% 0.0 mm 0 W/m2
05:45 19.8 °C 16.2 °C 1014.9 hPa WNW 3.2 km/h 6.4 km/h 80% 0.0 mm 0 W/m2
05:50 19.8 °C 16.2 °C 1014.9 hPa NW 3.2 km/h 8 km/h 80% 0.0 mm 0 W/m2
05:55 19.8 °C 16.2 °C 1014.9 hPa WNW 4.7 km/h 4.8 km/h 80% 0.0 mm 5 W/m2
06:00 19.8 °C 16.2 °C 1014.9 hPa Calm   8 km/h 80% 0.0 mm 7 W/m2
06:05 19.8 °C 16.2 °C 1014.9 hPa NW 3.2 km/h 6.4 km/h 80% 0.0 mm 7 W/m2
06:10 19.7 °C 16.3 °C 1014.9 hPa WNW 11.1 km/h 12.9 km/h 81% 0.0 mm 9 W/m2
06:15 19.7 °C 16.3 °C 1014.9 hPa WNW 4.7 km/h 19.3 km/h 81% 0.0 mm 11 W/m2
06:20 19.6 °C 16.4 °C 1014.9 hPa WNW 16.3 km/h 16.1 km/h 82% 0.0 mm 12 W/m2
06:25 19.6 °C 16.4 °C 1014.9 hPa NW 7.9 km/h 8 km/h 82% 0.0 mm 12 W/m2
06:30 19.5 °C 16.3 °C 1014.9 hPa NNW 4.7 km/h 16.1 km/h 82% 0.0 mm 14 W/m2
06:35 19.6 °C 16.4 °C 1014.9 hPa WNW 1.4 km/h 8 km/h 82% 0.0 mm 18 W/m2
06:40 19.6 °C 16.4 °C 1014.9 hPa West 1.4 km/h 8 km/h 82% 0.0 mm 19 W/m2
06:45 19.6 °C 16.4 °C 1014.9 hPa NW 4.7 km/h 4.8 km/h 82% 0.0 mm 23 W/m2
06:50 19.6 °C 16.4 °C 1014.9 hPa West 4.7 km/h 4.8 km/h 82% 0.0 mm 25 W/m2
06:55 19.6 °C 16.4 °C 1014.9 hPa SW 4.7 km/h 4.8 km/h 82% 0.0 mm 30 W/m2
07:00 19.6 °C 16.4 °C 1015.2 hPa SSW 9.7 km/h 9.7 km/h 82% 0.0 mm 33 W/m2
07:05 19.6 °C 16.6 °C 1014.9 hPa NE 1.4 km/h 4.8 km/h 83% 0.0 mm 37 W/m2
07:10 19.5 °C 16.7 °C 1014.9 hPa NNW 7.9 km/h 14.5 km/h 84% 0.0 mm 44 W/m2
07:20 19.2 °C 16.8 °C 1015.2 hPa NNW 6.4 km/h 6.4 km/h 86% 0.0 mm 60 W/m2
07:25 18.9 °C 16.7 °C 1015.2 hPa WNW 6.4 km/h 6.4 km/h 87% 0.0 mm 62 W/m2
07:30 18.8 °C 16.8 °C 1015.2 hPa SE 1.4 km/h 12.9 km/h 88% 0.0 mm 67 W/m2
07:35 18.8 °C 16.8 °C 1015.2 hPa NNE 1.4 km/h 1.6 km/h 88% 0.0 mm 70 W/m2
07:40 18.8 °C 16.8 °C 1015.2 hPa WSW 3.2 km/h 3.2 km/h 88% 0.0 mm 69 W/m2
07:45 18.8 °C 16.8 °C 1015.2 hPa NW 3.2 km/h 3.2 km/h 88% 0.0 mm 72 W/m2
07:50 18.8 °C 16.8 °C 1015.2 hPa NNE 4.7 km/h 6.4 km/h 88% 0.0 mm 77 W/m2
07:55 18.8 °C 16.8 °C 1015.2 hPa North 6.4 km/h 6.4 km/h 88% 0.0 mm 79 W/m2
08:00 18.8 °C 16.8 °C 1015.2 hPa North 4.7 km/h 12.9 km/h 88% 0.0 mm 90 W/m2
08:05 18.8 °C 16.8 °C 1015.2 hPa ESE 1.4 km/h 4.8 km/h 88% 0.0 mm 109 W/m2
08:10 18.8 °C 16.9 °C 1015.2 hPa NW 4.7 km/h 8 km/h 89% 0.0 mm 81 W/m2
08:15 18.8 °C 16.9 °C 1015.2 hPa WNW 3.2 km/h 4.8 km/h 89% 0.0 mm 90 W/m2
08:20 18.8 °C 16.9 °C 1015.2 hPa NW 1.4 km/h 6.4 km/h 89% 0.0 mm 155 W/m2
08:28 18.9 °C 17 °C 1015.2 hPa WSW 3.2 km/h 11.3 km/h 89% 0.0 mm 135 W/m2
08:33 18.9 °C 16.9 °C 1015.2 hPa West 3.2 km/h 6.4 km/h 88% 0.0 mm 67 W/m2
08:38 18.8 °C 16.9 °C 1015.2 hPa NW 4.7 km/h 6.4 km/h 89% 0.0 mm 79 W/m2
08:43 18.7 °C 17 °C 1015.2 hPa NNE 1.4 km/h 4.8 km/h 90% 0.0 mm 163 W/m2
08:48 18.7 °C 17 °C 1015.2 hPa South 1.4 km/h 3.2 km/h 90% 0.0 mm 95 W/m2
08:53 18.7 °C 17 °C 1015.2 hPa WNW 3.2 km/h 9.7 km/h 90% 0.0 mm 158 W/m2
08:58 18.7 °C 17.2 °C 1015.2 hPa West 4.7 km/h 11.3 km/h 91% 0.0 mm 134 W/m2
09:03 18.7 °C 17 °C 1015.2 hPa NNW 6.4 km/h 8 km/h 90% 0.0 mm 116 W/m2
09:08 18.6 °C 17.1 °C 1015.6 hPa NW 3.2 km/h 12.9 km/h 91% 0.0 mm 134 W/m2
09:18 18.6 °C 17.1 °C 1015.6 hPa WNW 13 km/h 16.1 km/h 91% 0.0 mm 174 W/m2
09:23 18.6 °C 17.1 °C 1015.6 hPa WNW 4.7 km/h 8 km/h 91% 0.0 mm 232 W/m2
09:28 18.8 °C 17.3 °C 1015.6 hPa SSE 6.4 km/h 9.7 km/h 91% 0.0 mm 244 W/m2
09:34 19 °C 17.3 °C 1015.6 hPa WNW 6.4 km/h 14.5 km/h 90% 0.0 mm 279 W/m2
09:39 19.1 °C 17.2 °C 1015.6 hPa NNW 4.7 km/h 8 km/h 89% 0.0 mm 239 W/m2
09:44 19.3 °C 17.4 °C 1015.6 hPa North 3.2 km/h 6.4 km/h 89% 0.0 mm 209 W/m2
09:49 19.3 °C 17.3 °C 1015.6 hPa WNW 13 km/h 12.9 km/h 88% 0.0 mm 190 W/m2
09:54 19.1 °C 17.1 °C 1015.6 hPa West 1.4 km/h 16.1 km/h 88% 0.0 mm 220 W/m2
09:59 19.1 °C 17.2 °C 1015.9 hPa NW 4.7 km/h 4.8 km/h 89% 0.0 mm 195 W/m2
10:04 19.2 °C 17.3 °C 1015.9 hPa SW 4.7 km/h 16.1 km/h 89% 0.0 mm 327 W/m2
10:09 19.3 °C 17.3 °C 1015.6 hPa ENE 3.2 km/h 12.9 km/h 88% 0.0 mm 573 W/m2
10:14 19.6 °C 17.6 °C 1015.6 hPa WSW 1.4 km/h 16.1 km/h 88% 0.0 mm 381 W/m2
10:19 19.7 °C 17.5 °C 1015.9 hPa SSE 3.2 km/h 6.4 km/h 87% 0.0 mm 272 W/m2
10:24 19.8 °C 17.6 °C 1015.9 hPa NE 1.4 km/h 12.9 km/h 87% 0.0 mm 239 W/m2
10:29 19.8 °C 17.6 °C 1015.9 hPa Calm   4.8 km/h 87% 0.0 mm 206 W/m2
10:34 19.8 °C 17.4 °C 1015.9 hPa NW 3.2 km/h 8 km/h 86% 0.0 mm 158 W/m2
10:39 19.7 °C 17.3 °C 1015.9 hPa NW 3.2 km/h 8 km/h 86% 0.0 mm 176 W/m2
10:44 19.6 °C 17.4 °C 1015.9 hPa Calm   6.4 km/h 87% 0.0 mm 229 W/m2
10:49 19.6 °C 17.6 °C 1015.9 hPa WSW 1.4 km/h 4.8 km/h 88% 0.0 mm 213 W/m2
10:54 19.6 °C 17.6 °C 1015.9 hPa East 1.4 km/h 6.4 km/h 88% 0.0 mm 190 W/m2
10:59 19.6 °C 17.6 °C 1015.9 hPa NW 4.7 km/h 8 km/h 88% 0.0 mm 125 W/m2
11:04 19.5 °C 17.6 °C 1015.9 hPa North 3.2 km/h 4.8 km/h 89% 0.0 mm 151 W/m2
11:09 19.3 °C 17.4 °C 1015.9 hPa WNW 7.9 km/h 8 km/h 89% 0.0 mm 155 W/m2
11:14 19.2 °C 17.5 °C 1015.9 hPa NW 3.2 km/h 6.4 km/h 90% 0.2 mm 181 W/m2
11:19 19.2 °C 17.5 °C 1015.9 hPa NNW 4.7 km/h 8 km/h 90% 0.2 mm 244 W/m2
11:24 19.2 °C 17.7 °C 1015.9 hPa WNW 6.4 km/h 11.3 km/h 91% 0.2 mm 155 W/m2
11:29 19.1 °C 17.6 °C 1016.3 hPa NW 3.2 km/h 12.9 km/h 91% 0.2 mm 185 W/m2
11:34 19.1 °C 17.6 °C 1015.9 hPa WNW 16.3 km/h 16.1 km/h 91% 0.5 mm 230 W/m2
11:39 19.1 °C 17.6 °C 1015.9 hPa NW 4.7 km/h 8 km/h 91% 0.5 mm 163 W/m2
11:49 19.2 °C 17.9 °C 1015.9 hPa West 4.7 km/h 9.7 km/h 92% 0.5 mm 169 W/m2
11:54 19.2 °C 17.7 °C 1015.9 hPa West 9.7 km/h 9.7 km/h 91% 0.5 mm 141 W/m2
11:59 19.2 °C 17.5 °C 1015.9 hPa NW 9.7 km/h 12.9 km/h 90% 0.5 mm 160 W/m2
12:04 19.2 °C 17.7 °C 1015.9 hPa WSW 1.4 km/h 6.4 km/h 91% 0.5 mm 376 W/m2
12:14 19.4 °C 17.7 °C 1015.6 hPa SSW 1.4 km/h 4.8 km/h 90% 0.2 mm 183 W/m2
12:19 19.4 °C 17.5 °C 1015.9 hPa SW 4.7 km/h 9.7 km/h 89% 0.2 mm 403 W/m2
12:24 19.6 °C 17.7 °C 1015.6 hPa SW 6.4 km/h 17.7 km/h 89% 0.5 mm 392 W/m2
12:29 19.9 °C 18.2 °C 1015.6 hPa Calm   6.4 km/h 90% 0.5 mm 334 W/m2
12:34 20.2 °C 18.1 °C 1015.6 hPa SE 4.7 km/h 17.7 km/h 88% 0.2 mm 380 W/m2
12:39 20.2 °C 18 °C 1015.6 hPa WNW 6.4 km/h 8 km/h 87% 0.2 mm 237 W/m2
12:44 20.3 °C 18.1 °C 1015.6 hPa NNE 4.7 km/h 16.1 km/h 87% 0.2 mm 216 W/m2
12:49 20.2 °C 17.8 °C 1015.6 hPa SW 1.4 km/h 16.1 km/h 86% 0.2 mm 288 W/m2
12:54 20.2 °C 17.8 °C 1015.9 hPa NW 6.4 km/h 8 km/h 86% 0.2 mm 197 W/m2
12:59 20.2 °C 17.8 °C 1015.9 hPa West 6.4 km/h 14.5 km/h 86% 0.2 mm 297 W/m2
13:05 20.1 °C 17.9 °C 1015.9 hPa WNW 4.7 km/h 11.3 km/h 87% 0.2 mm 272 W/m2
13:15 20.3 °C 18.1 °C 1015.6 hPa West 4.7 km/h 9.7 km/h 87% 0.2 mm 308 W/m2
13:20 20.3 °C 17.9 °C 1015.6 hPa WSW 3.2 km/h 12.9 km/h 86% 0.2 mm 336 W/m2
13:25 20.4 °C 18.2 °C 1015.6 hPa NW 1.4 km/h 6.4 km/h 87% 0.0 mm 338 W/m2
13:30 20.5 °C 18.3 °C 1015.6 hPa NW 1.4 km/h 6.4 km/h 87% 0.0 mm 413 W/m2
13:35 20.7 °C 18.3 °C 1015.6 hPa WNW 6.4 km/h 6.4 km/h 86% 0.0 mm 397 W/m2
13:40 20.7 °C 18.1 °C 1015.6 hPa South 3.2 km/h 6.4 km/h 85% 0.0 mm 454 W/m2
13:45 20.8 °C 18 °C 1015.6 hPa NW 3.2 km/h 11.3 km/h 84% 0.0 mm 439 W/m2
13:50 20.9 °C 18.1 °C 1015.6 hPa West 9.7 km/h 16.1 km/h 84% 0.0 mm 418 W/m2
13:55 20.8 °C 18 °C 1015.6 hPa NNW 6.4 km/h 11.3 km/h 84% 0.0 mm 383 W/m2
14:00 20.8 °C 18 °C 1015.6 hPa NW 3.2 km/h 14.5 km/h 84% 0.0 mm 436 W/m2
14:05 20.8 °C 18 °C 1015.6 hPa North 9.7 km/h 17.7 km/h 84% 0.0 mm 327 W/m2
14:10 20.6 °C 18 °C 1015.6 hPa WNW 4.7 km/h 16.1 km/h 85% 0.0 mm 411 W/m2
14:15 20.7 °C 18.5 °C 1015.2 hPa West 9.7 km/h 14.5 km/h 87% 0.0 mm 577 W/m2
14:20 20.9 °C 18.5 °C 1015.2 hPa NW 1.4 km/h 11.3 km/h 86% 0.0 mm 863 W/m2
14:25 21.3 °C 18.5 °C 1015.2 hPa WNW 7.9 km/h 14.5 km/h 84% 0.0 mm 524 W/m2
14:30 21.4 °C 18.4 °C 1015.2 hPa West 4.7 km/h 8 km/h 83% 0.0 mm 432 W/m2
14:35 21.3 °C 18.3 °C 1015.2 hPa West 6.4 km/h 19.3 km/h 83% 0.0 mm 425 W/m2
14:40 21.3 °C 18.3 °C 1014.9 hPa WNW 11.1 km/h 11.3 km/h 83% 0.0 mm 886 W/m2
14:45 21.6 °C 18.6 °C 1014.9 hPa East 4.7 km/h 12.9 km/h 83% 0.0 mm 886 W/m2
14:50 22.1 °C 18.9 °C 1014.9 hPa SW 6.4 km/h 12.9 km/h 82% 0.0 mm 907 W/m2
14:55 22.6 °C 18.8 °C 1014.9 hPa West 3.2 km/h 8 km/h 79% 0.0 mm 921 W/m2
15:00 22.9 °C 18.2 °C 1014.6 hPa WSW 6.4 km/h 29 km/h 75% 0.0 mm 909 W/m2
15:05 23.1 °C 18.4 °C 1014.6 hPa WNW 4.7 km/h 8 km/h 75% 0.0 mm 895 W/m2
15:10 23.3 °C 18.4 °C 1014.6 hPa West 3.2 km/h 19.3 km/h 74% 0.0 mm 932 W/m2
15:15 23.6 °C 18.7 °C 1014.6 hPa NE 3.2 km/h 8 km/h 74% 0.0 mm 364 W/m2
15:20 23.7 °C 18.4 °C 1014.6 hPa NW 4.7 km/h 9.7 km/h 72% 0.0 mm 926 W/m2
15:25 23.6 °C 18.5 °C 1014.6 hPa NW 3.2 km/h 11.3 km/h 73% 0.0 mm 888 W/m2
15:30 23.7 °C 18.1 °C 1014.6 hPa WSW 13 km/h 19.3 km/h 71% 0.0 mm 334 W/m2
15:35 23.8 °C 18 °C 1014.6 hPa WNW 3.2 km/h 14.5 km/h 70% 0.0 mm 434 W/m2
15:40 23.9 °C 17.9 °C 1014.6 hPa NW 4.7 km/h 11.3 km/h 69% 0.0 mm 272 W/m2
15:45 23.8 °C 17.8 °C 1014.6 hPa West 6.4 km/h 12.9 km/h 69% 0.0 mm 330 W/m2
15:50 23.8 °C 17.8 °C 1014.6 hPa West 13 km/h 12.9 km/h 69% 0.0 mm 299 W/m2
15:55 23.8 °C 17.8 °C 1014.6 hPa SW 4.7 km/h 4.8 km/h 69% 0.0 mm 206 W/m2
16:00 23.7 °C 17.7 °C 1014.6 hPa NNE 3.2 km/h 20.9 km/h 69% 0.0 mm 276 W/m2
16:05 23.7 °C 17.4 °C 1014.6 hPa NW 6.4 km/h 11.3 km/h 68% 0.0 mm 232 W/m2
16:10 23.7 °C 17.7 °C 1014.6 hPa Calm   4.8 km/h 69% 0.0 mm 244 W/m2
16:15 23.8 °C 17.8 °C 1014.6 hPa NNW 1.4 km/h 11.3 km/h 69% 0.0 mm 381 W/m2
16:20 24 °C 17.7 °C 1014.2 hPa NW 4.7 km/h 11.3 km/h 68% 0.0 mm 318 W/m2
16:25 24.1 °C 17.8 °C 1014.2 hPa North 6.4 km/h 6.4 km/h 68% 0.0 mm 388 W/m2
16:30 24.7 °C 18.6 °C 1014.2 hPa SW 3.2 km/h 9.7 km/h 69% 0.0 mm 823 W/m2
16:35 25.1 °C 18.1 °C 1014.2 hPa South 7.9 km/h 14.5 km/h 65% 0.0 mm 236 W/m2
16:40 25.1 °C 18.1 °C 1014.2 hPa WNW 16.3 km/h 16.1 km/h 65% 0.0 mm 759 W/m2
16:46 25.3 °C 18 °C 1013.9 hPa SW 1.4 km/h 11.3 km/h 64% 0.0 mm 749 W/m2
16:51 25.4 °C 17.8 °C 1013.9 hPa West 9.7 km/h 12.9 km/h 63% 0.0 mm 304 W/m2
16:56 25.6 °C 18 °C 1013.9 hPa Calm   12.9 km/h 63% 0.0 mm 831 W/m2
17:01 25.8 °C 18 °C 1013.9 hPa ESE 14.3 km/h 14.5 km/h 62% 0.0 mm 253 W/m2
17:06 25.6 °C 17.5 °C 1013.5 hPa WSW 4.7 km/h 14.5 km/h 61% 0.0 mm 269 W/m2
17:11 25.3 °C 17.5 °C 1013.5 hPa NW 1.4 km/h 11.3 km/h 62% 0.0 mm 274 W/m2
17:26 25.2 °C 17.4 °C 1013.5 hPa WSW 6.4 km/h 9.7 km/h 62% 0.0 mm 204 W/m2
17:31 25.2 °C 17.7 °C 1013.5 hPa WNW 1.4 km/h 11.3 km/h 63% 0.0 mm 192 W/m2
17:46 25 °C 17.5 °C 1013.5 hPa WNW 11.1 km/h 14.5 km/h 63% 0.0 mm 146 W/m2
17:51 24.8 °C 17.3 °C 1013.5 hPa NW 4.7 km/h 11.3 km/h 63% 0.0 mm 116 W/m2
18:01 24.6 °C 17.3 °C 1013.5 hPa WNW 11.1 km/h 19.3 km/h 64% 0.0 mm 54 W/m2
18:06 24.4 °C 17.4 °C 1013.5 hPa WNW 3.2 km/h 14.5 km/h 65% 0.0 mm 47 W/m2
18:11 24.3 °C 17.3 °C 1013.5 hPa West 9.7 km/h 19.3 km/h 65% 0.0 mm 30 W/m2
18:16 24.2 °C 17.2 °C 1013.5 hPa West 4.7 km/h 12.9 km/h 65% 0.0 mm 32 W/m2
18:21 24.1 °C 17.3 °C 1013.5 hPa WSW 11.1 km/h 14.5 km/h 66% 0.0 mm 30 W/m2
18:26 24 °C 17.3 °C 1013.5 hPa WNW 9.7 km/h 9.7 km/h 66% 0.0 mm 25 W/m2
18:31 23.9 °C 17.2 °C 1013.5 hPa West 3.2 km/h 6.4 km/h 66% 0.0 mm 28 W/m2
18:36 23.8 °C 17.1 °C 1013.5 hPa West 3.2 km/h 11.3 km/h 66% 0.0 mm 35 W/m2
18:41 23.8 °C 17.1 °C 1013.5 hPa WSW 4.7 km/h 8 km/h 66% 0.0 mm 40 W/m2
18:46 23.7 °C 17.2 °C 1013.5 hPa West 9.7 km/h 9.7 km/h 67% 0.0 mm 39 W/m2
18:51 23.7 °C 17.2 °C 1013.5 hPa West 11.1 km/h 11.3 km/h 67% 0.0 mm 60 W/m2
18:56 23.6 °C 17.1 °C 1013.5 hPa NNW 3.2 km/h 8 km/h 67% 0.0 mm 74 W/m2
19:01 23.6 °C 17.1 °C 1013.5 hPa West 9.7 km/h 12.9 km/h 67% 0.0 mm 63 W/m2
19:06 23.6 °C 17.3 °C 1013.5 hPa WNW 11.1 km/h 12.9 km/h 68% 0.0 mm 39 W/m2
19:11 23.4 °C 17.2 °C 1013.5 hPa SW 4.7 km/h 16.1 km/h 68% 0.0 mm 47 W/m2
19:16 23.4 °C 17.2 °C 1013.5 hPa WNW 6.4 km/h 12.9 km/h 68% 0.0 mm 30 W/m2
19:21 23.3 °C 17.1 °C 1013.5 hPa West 4.7 km/h 9.7 km/h 68% 0.0 mm 28 W/m2
19:26 23.2 °C 17.2 °C 1013.5 hPa WSW 3.2 km/h 12.9 km/h 69% 0.0 mm 21 W/m2
19:31 23.2 °C 17.2 °C 1013.5 hPa West 6.4 km/h 8 km/h 69% 0.0 mm 16 W/m2
19:36 23.1 °C 17.3 °C 1013.5 hPa West 6.4 km/h 8 km/h 70% 0.0 mm 18 W/m2
19:41 23 °C 17.2 °C 1013.5 hPa West 11.1 km/h 12.9 km/h 70% 0.0 mm 16 W/m2
19:46 22.9 °C 17.4 °C 1013.5 hPa WNW 6.4 km/h 19.3 km/h 71% 0.0 mm 21 W/m2
19:51 22.8 °C 17.3 °C 1013.5 hPa WSW 4.7 km/h 16.1 km/h 71% 0.0 mm 33 W/m2
19:56 22.7 °C 17.2 °C 1013.5 hPa WSW 6.4 km/h 6.4 km/h 71% 0.0 mm 39 W/m2
20:01 22.7 °C 17.2 °C 1013.5 hPa West 11.1 km/h 11.3 km/h 71% 0.0 mm 49 W/m2
20:06 22.7 °C 17.4 °C 1013.5 hPa WNW 1.4 km/h 6.4 km/h 72% 0.0 mm 35 W/m2
20:11 22.6 °C 17.3 °C 1013.5 hPa WNW 6.4 km/h 16.1 km/h 72% 0.0 mm 30 W/m2
20:16 22.3 °C 17.7 °C 1013.5 hPa WSW 7.9 km/h 16.1 km/h 75% 0.0 mm 28 W/m2
20:21 21.8 °C 17.6 °C 1013.5 hPa NW 6.4 km/h 11.3 km/h 77% 0.0 mm 21 W/m2
20:26 21.6 °C 17.6 °C 1013.5 hPa WNW 4.7 km/h 11.3 km/h 78% 0.0 mm 26 W/m2
20:31 21.6 °C 17.6 °C 1013.2 hPa WSW 6.4 km/h 6.4 km/h 78% 0.0 mm 46 W/m2
20:36 21.7 °C 17.5 °C 1013.2 hPa WNW 4.7 km/h 11.3 km/h 77% 0.0 mm 44 W/m2
20:41 21.8 °C 17.4 °C 1013.2 hPa NW 3.2 km/h 16.1 km/h 76% 0.0 mm 32 W/m2
20:46 21.9 °C 17.5 °C 1013.2 hPa WNW 3.2 km/h 3.2 km/h 76% 0.0 mm 19 W/m2
20:51 22 °C 17.6 °C 1013.5 hPa North 6.4 km/h 16.1 km/h 76% 0.0 mm 16 W/m2
20:56 22.1 °C 17.5 °C 1013.2 hPa WNW 13 km/h 12.9 km/h 75% 0.0 mm 11 W/m2
21:01 22.1 °C 17.5 °C 1013.2 hPa NW 7.9 km/h 12.9 km/h 75% 0.0 mm 9 W/m2
21:06 22.1 °C 17.5 °C 1013.2 hPa WNW 9.7 km/h 9.7 km/h 75% 0.0 mm 7 W/m2
21:11 22.1 °C 17.5 °C 1013.2 hPa NW 6.4 km/h 12.9 km/h 75% 0.0 mm 5 W/m2
21:16 22 °C 17.4 °C 1013.2 hPa WNW 6.4 km/h 16.1 km/h 75% 0.0 mm 5 W/m2
21:21 21.8 °C 17.2 °C 1013.5 hPa NW 6.4 km/h 17.7 km/h 75% 0.0 mm 0 W/m2
21:26 21.6 °C 17.2 °C 1013.2 hPa West 4.7 km/h 14.5 km/h 76% 0.0 mm 0 W/m2
21:31 21.3 °C 17.3 °C 1013.2 hPa WNW 3.2 km/h 9.7 km/h 78% 0.0 mm 0 W/m2
21:36 20.9 °C 17.1 °C 1013.5 hPa West 6.4 km/h 19.3 km/h 79% 0.0 mm 0 W/m2
21:41 20.5 °C 17.3 °C 1013.5 hPa NW 14.3 km/h 16.1 km/h 82% 0.0 mm 0 W/m2
21:46 20.2 °C 17.4 °C 1013.5 hPa NW 6.4 km/h 11.3 km/h 84% 0.0 mm 0 W/m2
21:51 19.8 °C 17.4 °C 1013.5 hPa WNW 4.7 km/h 12.9 km/h 86% 0.0 mm 0 W/m2
22:01 19.4 °C 17.5 °C 1013.5 hPa WNW 7.9 km/h 16.1 km/h 89% 0.0 mm 0 W/m2
22:06 19.3 °C 17.4 °C 1013.5 hPa WSW 4.7 km/h 9.7 km/h 89% 0.0 mm 0 W/m2
22:11 19.3 °C 17.4 °C 1013.5 hPa West 14.3 km/h 17.7 km/h 89% 0.0 mm 0 W/m2
22:16 19.2 °C 17.3 °C 1013.5 hPa NW 6.4 km/h 11.3 km/h 89% 0.2 mm 0 W/m2
22:21 19.1 °C 17.2 °C 1013.2 hPa WNW 7.9 km/h 14.5 km/h 89% 0.2 mm 0 W/m2
22:26 19.1 °C 17.2 °C 1013.2 hPa West 9.7 km/h 12.9 km/h 89% 0.2 mm 0 W/m2
22:31 19.2 °C 17.3 °C 1012.9 hPa WNW 1.4 km/h 9.7 km/h 89% 0.2 mm 0 W/m2
22:36 19.2 °C 17.3 °C 1013.2 hPa WNW 3.2 km/h 6.4 km/h 89% 0.2 mm 0 W/m2
22:41 19.2 °C 17.3 °C 1013.2 hPa West 9.7 km/h 9.7 km/h 89% 0.2 mm 0 W/m2
22:46 19.3 °C 17.4 °C 1013.2 hPa WSW 3.2 km/h 6.4 km/h 89% 0.2 mm 0 W/m2
22:51 19.3 °C 17.4 °C 1013.2 hPa SSW 1.4 km/h 9.7 km/h 89% 0.2 mm 0 W/m2
22:56 19.3 °C 17.3 °C 1013.2 hPa SW 7.9 km/h 8 km/h 88% 0.2 mm 0 W/m2
23:01 19.3 °C 17.3 °C 1013.2 hPa SW 6.4 km/h 11.3 km/h 88% 0.2 mm 0 W/m2
23:06 19.3 °C 17.4 °C 1013.2 hPa West 1.4 km/h 4.8 km/h 89% 0.2 mm 0 W/m2
23:11 19.3 °C 17.4 °C 1013.2 hPa Calm   4.8 km/h 89% 0.2 mm 0 W/m2
23:16 19.2 °C 17.3 °C 1012.9 hPa Calm   3.2 km/h 89% 0.0 mm 0 W/m2
23:21 19.2 °C 17.3 °C 1012.9 hPa Calm   4.8 km/h 89% 0.0 mm 0 W/m2
23:26 19.2 °C 17.3 °C 1012.9 hPa Calm   1.6 km/h 89% 0.0 mm 0 W/m2
23:31 19.1 °C 17.2 °C 1012.9 hPa SSW 6.4 km/h 12.9 km/h 89% 0.0 mm 0 W/m2
23:36 19.1 °C 17.2 °C 1012.9 hPa Calm     89% 0.0 mm 0 W/m2
23:41 19 °C 17.3 °C 1012.9 hPa SE 1.4 km/h 4.8 km/h 90% 0.0 mm 0 W/m2
23:46 19 °C 17.3 °C 1012.5 hPa Calm   1.6 km/h 90% 0.0 mm 0 W/m2
23:51 18.9 °C 17.2 °C 1012.5 hPa Calm   1.6 km/h 90% 0.0 mm 0 W/m2
23:57 18.9 °C 17 °C 1012.5 hPa WNW 1.4 km/h 1.6 km/h 89% 0.0 mm 0 W/m2
Juneau County Weather
Compliments of Weather Underground - 4 mb